Terminal Aerodrome Forecast
Issued by NWS

Home | Current Version | Previous Version | Text Only | Print | Product List | Glossary On
Versions: 1 2 3 4 5 6 7 8 9 10 11 12
546
FTUS42 TJSJ 021142
TAFJMZ
TAF
TJMZ 021142Z 0212/0312 07007KT P6SM FEW030 FEW090
     FM021630 27010KT P6SM VCTS BKN030CB
     FM022230 06005KT P6SM SCT080
      AMD NOT SKED=

USA.gov is the U.S. government's official web portal to all federal, state and local government web resources and services.